Time;durP1;ratioP1;P1;durP2;ratioP2;P2;SDS_P1;SDS_P2;PMS_P1;PMS_P2;Temp;Humidity;BMP_temperature;BMP_pressure;BME280_temperature;BME280_humidity;BME280_pressure;Samples;Min_cycle;Max_cycle;Signal;HPM_P1;HPM_P2
2023/01/16 00:00:12;;;;;;;0.20;0.10;;;9.00;99.90;;;;;;21143459;28;20827;-72
2023/01/16 00:21:17;;;;;;;0.20;0.10;;;8.80;99.90;;;;;;21145896;28;20398;-74
2023/01/16 00:31:23;;;;;;;0.20;0.10;;;8.70;99.90;;;;;;21158856;28;20905;-74
2023/01/16 00:41:28;;;;;;;0.20;0.10;;;8.70;99.90;;;;;;21159346;28;20399;-74
2023/01/16 00:51:31;;;;;;;0.20;0.10;;;8.90;99.90;;;;;;21157106;28;20427;-74
2023/01/16 01:01:37;;;;;;;0.20;0.00;;;9.00;99.90;;;;;;21157247;28;20866;-74
2023/01/16 01:11:41;;;;;;;0.20;0.07;;;8.90;99.90;;;;;;21155635;28;20494;-73
2023/01/16 01:21:46;;;;;;;0.20;0.00;;;8.90;99.90;;;;;;21156017;28;20396;-72
2023/01/16 01:31:50;;;;;;;0.20;0.10;;;8.60;99.90;;;;;;21155128;28;20403;-72
2023/01/16 01:42:41;;;;;;;0.20;0.00;;;8.40;99.90;;;;;;21152035;28;21068;-74
2023/01/16 01:52:21;;;;;;;0.20;0.10;;;8.60;99.90;;;;;;21151448;28;20391;-74
2023/01/16 02:02:30;;;;;;;0.20;0.10;;;8.50;99.90;;;;;;21150702;28;20420;-73
2023/01/16 02:12:36;;;;;;;0.20;0.10;;;8.50;99.90;;;;;;21150399;28;20452;-73
2023/01/16 02:23:09;;;;;;;0.20;0.10;;;8.20;99.90;;;;;;21149301;28;20402;-72
2023/01/16 02:33:20;;;;;;;0.20;0.10;;;8.20;99.90;;;;;;21142151;28;20924;-71
2023/01/16 02:43:33;;;;;;;0.20;0.10;;;8.10;99.90;;;;;;21149200;28;20410;-71
2023/01/16 02:53:45;;;;;;;0.20;0.10;;;8.10;99.90;;;;;;21148335;28;20398;-71
2023/01/16 03:03:51;;;;;;;0.20;0.10;;;7.80;99.90;;;;;;21146685;28;20426;-71
2023/01/16 03:14:17;;;;;;;0.20;0.10;;;7.50;99.90;;;;;;21147732;28;20421;-72
2023/01/16 03:24:36;;;;;;;0.20;0.10;;;7.60;99.90;;;;;;21145949;28;20476;-72
2023/01/16 03:34:46;;;;;;;0.20;0.10;;;7.00;99.90;;;;;;21146718;28;21055;-72
2023/01/16 03:44:54;;;;;;;0.20;0.10;;;6.60;99.90;;;;;;21143808;28;20414;-72
2023/01/16 03:55:06;;;;;;;0.20;0.10;;;6.70;99.90;;;;;;21145167;28;20442;-72
2023/01/16 04:05:16;;;;;;;0.20;0.10;;;6.80;99.90;;;;;;21143803;28;20402;-72
2023/01/16 04:15:24;;;;;;;0.20;0.10;;;7.00;99.90;;;;;;21117358;28;20399;-71
2023/01/16 04:25:28;;;;;;;0.20;0.10;;;7.50;99.90;;;;;;21130161;28;20402;-72
2023/01/16 04:35:34;;;;;;;0.20;0.10;;;7.70;99.90;;;;;;21157977;28;20390;-72
2023/01/16 04:45:39;;;;;;;0.20;0.10;;;7.80;99.90;;;;;;21183053;27;20458;-72
2023/01/16 04:55:44;;;;;;;0.20;0.10;;;8.30;99.90;;;;;;21072192;28;20404;-72
2023/01/16 05:05:48;;;;;;;0.20;0.10;;;8.60;99.90;;;;;;21096498;28;20406;-73
2023/01/16 05:15:53;;;;;;;0.20;0.10;;;8.70;99.90;;;;;;21154531;28;20443;-74
2023/01/16 05:25:57;;;;;;;0.20;0.10;;;8.90;99.90;;;;;;21152576;28;20419;-73
2023/01/16 05:36:02;;;;;;;0.20;0.10;;;8.70;99.90;;;;;;21153000;28;21052;-72
2023/01/16 05:46:06;;;;;;;0.20;0.10;;;8.40;99.90;;;;;;21152930;28;20877;-73
2023/01/16 05:56:12;;;;;;;0.20;0.10;;;8.40;99.90;;;;;;21151087;28;20949;-73
2023/01/16 06:06:16;;;;;;;0.20;0.10;;;8.50;99.90;;;;;;21150142;28;20418;-72
2023/01/16 06:16:22;;;;;;;0.20;0.10;;;8.60;99.90;;;;;;21150131;28;20794;-70
2023/01/16 06:26:26;;;;;;;0.20;0.10;;;8.40;99.90;;;;;;21148003;28;20410;-71
2023/01/16 06:36:31;;;;;;;0.20;0.10;;;8.50;99.90;;;;;;21146363;28;20394;-73
2023/01/16 06:46:35;;;;;;;0.20;0.10;;;8.50;99.90;;;;;;21145267;28;20816;-71
2023/01/16 06:56:41;;;;;;;0.20;0.10;;;8.60;99.90;;;;;;21141819;28;20490;-70
2023/01/16 07:06:45;;;;;;;0.20;0.10;;;8.60;99.90;;;;;;21140970;28;20433;-71
2023/01/16 07:27:12;;;;;;;0.20;0.10;;;8.50;99.90;;;;;;21143633;28;20468;-69
2023/01/16 07:37:17;;;;;;;0.20;0.10;;;8.60;99.90;;;;;;21155088;28;20402;-70
2023/01/16 07:47:21;;;;;;;0.20;0.10;;;8.70;99.90;;;;;;21158601;28;20410;-73
2023/01/16 07:57:26;;;;;;;0.20;0.10;;;8.90;99.90;;;;;;21158675;28;20416;-72
2023/01/16 08:07:30;;;;;;;0.20;0.10;;;9.10;99.90;;;;;;21158030;28;20478;-71
2023/01/16 08:17:38;;;;;;;0.20;0.10;;;9.50;99.90;;;;;;21157152;28;20382;-73
2023/01/16 08:27:42;;;;;;;0.20;0.10;;;9.40;99.90;;;;;;21138282;28;20921;-71
2023/01/16 08:37:51;;;;;;;0.20;0.10;;;9.50;99.90;;;;;;21155052;28;20383;-73
2023/01/16 08:58:20;;;;;;;0.20;0.10;;;9.60;99.90;;;;;;21153026;28;20445;-71
2023/01/16 09:08:24;;;;;;;0.20;0.10;;;9.70;99.90;;;;;;21151581;28;20460;-72
2023/01/16 09:18:30;;;;;;;0.20;0.10;;;10.00;99.90;;;;;;21152116;28;20406;-71
2023/01/16 09:28:33;;;;;;;0.20;0.10;;;10.30;99.90;;;;;;21134666;28;20435;-72
2023/01/16 09:38:39;;;;;;;0.20;0.10;;;10.70;99.90;;;;;;21121661;28;20413;-73
2023/01/16 09:48:49;;;;;;;0.20;0.10;;;11.10;99.90;;;;;;21064640;28;20431;-72
2023/01/16 09:59:03;;;;;;;0.20;0.10;;;11.40;99.90;;;;;;21091773;28;20448;-73
2023/01/16 10:09:15;;;;;;;0.20;0.10;;;11.70;99.90;;;;;;21146695;28;20485;-74
2023/01/16 10:19:30;;;;;;;0.20;0.10;;;12.00;99.90;;;;;;21145931;28;20531;-72
2023/01/16 10:29:40;;;;;;;0.20;0.10;;;12.20;99.90;;;;;;21103842;28;20738;-73
2023/01/16 10:39:46;;;;;;;0.20;0.00;;;12.60;99.90;;;;;;21064352;28;20471;-73
2023/01/16 10:49:49;;;;;;;0.20;0.10;;;13.40;99.90;;;;;;21097873;28;20406;-71
2023/01/16 11:00:01;;;;;;;0.20;0.00;;;14.20;99.90;;;;;;21145041;28;20386;-74
2023/01/16 11:10:06;;;;;;;0.20;0.10;;;15.10;99.90;;;;;;21142860;28;20402;-71
2023/01/16 11:20:15;;;;;;;0.20;0.10;;;15.20;99.90;;;;;;21125306;28;21049;-73
2023/01/16 11:30:22;;;;;;;0.20;0.10;;;15.50;99.90;;;;;;21077539;28;20404;-71
2023/01/16 11:40:37;;;;;;;0.20;0.10;;;15.40;99.90;;;;;;21113801;28;20386;-71
2023/01/16 11:50:41;;;;;;;0.20;0.10;;;15.40;99.90;;;;;;21142643;28;20497;-73
2023/01/16 12:00:54;;;;;;;0.20;0.10;;;15.90;99.90;;;;;;21142362;28;20397;-74
2023/01/16 12:11:05;;;;;;;0.20;0.10;;;15.60;99.90;;;;;;21139651;28;20552;-74
2023/01/16 12:21:23;;;;;;;0.20;0.00;;;15.40;99.90;;;;;;21114538;28;20445;-73
2023/01/16 12:31:49;;;;;;;0.20;0.10;;;15.50;99.90;;;;;;21072334;28;20465;-71
2023/01/16 12:52:50;;;;;;;0.20;0.10;;;14.90;99.90;;;;;;21136114;28;20402;-72
2023/01/16 13:03:00;;;;;;;0.20;0.10;;;14.80;99.90;;;;;;21154206;28;20479;-73
2023/01/16 13:23:39;;;;;;;0.20;0.10;;;15.10;99.90;;;;;;21112962;28;20422;-73
2023/01/16 13:33:47;;;;;;;0.20;0.10;;;15.20;99.90;;;;;;21071879;28;20415;-73
2023/01/16 13:54:23;;;;;;;0.20;0.10;;;16.00;99.90;;;;;;21044499;28;20469;-72
2023/01/16 14:04:33;;;;;;;0.20;0.10;;;16.70;99.90;;;;;;21060033;28;20397;-71
2023/01/16 14:25:22;;;;;;;0.20;0.10;;;15.10;99.90;;;;;;21084013;28;20922;-69
2023/01/16 14:35:29;;;;;;;0.20;0.00;;;14.80;99.90;;;;;;21058477;28;20412;-72
2023/01/16 14:56:01;;;;;;;0.20;0.10;;;14.10;99.90;;;;;;21120967;28;20390;-71
2023/01/16 15:06:10;;;;;;;0.20;0.10;;;14.10;99.90;;;;;;21137589;28;20444;-70
2023/01/16 15:16:15;;;;;;;0.20;0.10;;;14.00;99.90;;;;;;21140295;28;21201;-70
2023/01/16 15:26:52;;;;;;;0.20;0.10;;;13.80;99.90;;;;;;21124390;28;20416;-72
2023/01/16 15:37:00;;;;;;;0.20;0.10;;;13.90;99.90;;;;;;21035609;28;20396;-71
2023/01/16 15:47:25;;;;;;;0.20;0.10;;;13.80;99.90;;;;;;21104904;28;20489;-70
2023/01/16 15:57:28;;;;;;;0.20;0.10;;;13.80;99.90;;;;;;21147801;28;20403;-70
2023/01/16 16:07:33;;;;;;;0.20;0.10;;;13.50;99.90;;;;;;21152571;28;20873;-69
2023/01/16 16:17:56;;;;;;;0.20;0.00;;;13.50;99.90;;;;;;21151714;28;20467;-71
2023/01/16 16:28:01;;;;;;;0.20;0.07;;;13.40;99.90;;;;;;21123962;28;20483;-70
2023/01/16 16:38:06;;;;;;;0.20;0.10;;;13.30;99.90;;;;;;21066636;28;20393;-71
2023/01/16 16:48:28;;;;;;;0.20;0.10;;;13.20;99.90;;;;;;21124120;28;20414;-71
2023/01/16 16:58:32;;;;;;;0.20;0.10;;;13.20;99.90;;;;;;21131722;28;20403;-71
2023/01/16 17:08:37;;;;;;;0.20;0.10;;;13.30;99.90;;;;;;21148539;28;20387;-71
2023/01/16 17:18:41;;;;;;;0.20;0.10;;;13.20;99.90;;;;;;21147871;28;20445;-71
2023/01/16 17:28:46;;;;;;;0.20;0.10;;;13.30;99.90;;;;;;21146906;28;20403;-74
2023/01/16 17:38:51;;;;;;;0.20;0.10;;;13.10;99.90;;;;;;21143791;28;20501;-73
2023/01/16 17:48:56;;;;;;;0.20;0.10;;;13.10;99.90;;;;;;21146904;28;20988;-74
2023/01/16 17:59:07;;;;;;;0.20;0.10;;;13.20;99.90;;;;;;21147282;28;20402;-73
2023/01/16 18:09:14;;;;;;;0.20;0.10;;;13.10;99.90;;;;;;21129046;28;20459;-72
2023/01/16 18:19:18;;;;;;;0.20;0.00;;;12.90;99.90;;;;;;21144979;28;20448;-71
2023/01/16 18:29:23;;;;;;;0.20;0.10;;;12.80;99.90;;;;;;21146523;28;20788;-73
2023/01/16 19:10:38;;;;;;;0.20;0.10;;;12.90;99.90;;;;;;21141575;28;20509;-72
2023/01/16 19:20:42;;;;;;;0.20;0.10;;;12.80;99.90;;;;;;21139241;28;20471;-73
2023/01/16 19:30:47;;;;;;;0.20;0.10;;;12.80;99.90;;;;;;21153563;28;20796;-71
2023/01/16 19:40:52;;;;;;;0.20;0.10;;;12.70;99.90;;;;;;21164978;27;20391;-72
2023/01/16 19:50:58;;;;;;;0.20;0.10;;;12.80;99.90;;;;;;21167613;27;20501;-74
2023/01/16 20:01:10;;;;;;;0.20;0.10;;;12.70;99.90;;;;;;21165774;27;21033;-73
2023/01/16 20:11:16;;;;;;;0.20;0.10;;;12.60;99.90;;;;;;21166467;27;20411;-73
2023/01/16 20:21:20;;;;;;;0.20;0.10;;;12.50;99.90;;;;;;21165871;27;20394;-72
2023/01/16 20:31:27;;;;;;;0.20;0.10;;;12.00;99.90;;;;;;21119903;28;20406;-72
2023/01/16 20:51:55;;;;;;;0.20;0.10;;;11.80;99.90;;;;;;21134178;28;20394;-80
2023/01/16 21:02:00;;;;;;;0.20;0.10;;;11.90;99.90;;;;;;21135644;28;20395;-81
2023/01/16 21:22:30;;;;;;;0.20;0.10;;;11.70;99.90;;;;;;21153374;28;20399;-81
2023/01/16 21:32:35;;;;;;;0.20;0.00;;;11.90;99.90;;;;;;21067939;28;20602;-80
2023/01/16 21:53:03;;;;;;;0.20;0.10;;;12.20;99.90;;;;;;21149128;28;20407;-72
2023/01/16 22:03:07;;;;;;;0.20;0.10;;;11.90;99.90;;;;;;21152238;28;20406;-72
2023/01/16 22:23:34;;;;;;;0.20;0.10;;;11.80;99.90;;;;;;21149634;28;20974;-72
2023/01/16 22:33:39;;;;;;;0.20;0.10;;;11.50;99.90;;;;;;21108612;28;20403;-72
2023/01/16 22:54:06;;;;;;;0.20;0.10;;;11.60;99.90;;;;;;21062828;28;20499;-72
2023/01/16 23:04:10;;;;;;;0.20;0.10;;;12.00;99.90;;;;;;21100564;28;20400;-72
2023/01/16 23:14:18;;;;;;;0.20;0.10;;;12.20;99.90;;;;;;21102319;28;20407;-72
2023/01/16 23:24:23;;;;;;;0.20;0.10;;;12.20;99.90;;;;;;21100598;28;20504;-73
2023/01/16 23:34:29;;;;;;;0.20;0.10;;;12.20;99.90;;;;;;21129849;28;20911;-72
2023/01/16 23:44:35;;;;;;;0.20;0.10;;;12.20;99.90;;;;;;21115877;28;20415;-73
2023/01/16 23:54:40;;;;;;;0.20;0.00;;;12.30;99.90;;;;;;21043510;28;20458;-71
